Time;durP1;ratioP1;P1;durP2;ratioP2;P2;SDS_P1;SDS_P2;PMS_P1;PMS_P2;Temp;Humidity;BMP_temperature;BMP_pressure;BME280_temperature;BME280_humidity;BME280_pressure;Samples;Min_cycle;Max_cycle;Signal;HPM_P1;HPM_P2
2022/09/09 00:01:17;;;;;;;1.77;1.67;;;14.80;97.30;;;;;;5011393;28;20443;-90
2022/09/09 00:04:04;;;;;;;1.20;1.10;;;14.80;97.30;;;;;;4982631;28;20416;-90
2022/09/09 00:07:04;;;;;;;1.10;1.10;;;14.80;97.30;;;;;;4989341;28;20493;-90
2022/09/09 00:10:04;;;;;;;1.67;1.20;;;14.80;97.30;;;;;;4966275;28;20445;-90
2022/09/09 00:12:41;;;;;;;2.20;1.60;;;14.80;97.30;;;;;;4979976;28;20428;-90
2022/09/09 00:15:13;;;;;;;1.10;1.07;;;14.80;97.30;;;;;;4993345;28;20542;-90
2022/09/09 00:17:50;;;;;;;1.33;1.23;;;14.80;97.30;;;;;;4995993;28;20425;-90
2022/09/09 00:20:35;;;;;;;1.53;1.43;;;14.80;97.30;;;;;;4991908;28;20468;-90
2022/09/09 00:23:18;;;;;;;1.20;1.00;;;14.80;97.30;;;;;;4987210;28;20423;-89
2022/09/09 00:26:23;;;;;;;4.40;1.43;;;14.70;97.30;;;;;;4983905;28;20431;-90
2022/09/09 00:29:03;;;;;;;1.30;1.10;;;14.70;97.30;;;;;;4973902;28;20419;-89
2022/09/09 00:31:31;;;;;;;1.60;1.50;;;14.60;97.30;;;;;;4995957;28;20518;-90
2022/09/09 00:34:19;;;;;;;1.13;1.13;;;14.60;97.30;;;;;;5009237;28;20517;-90
2022/09/09 00:36:48;;;;;;;2.00;1.43;;;14.50;97.30;;;;;;5000935;28;20419;-90
2022/09/09 00:39:30;;;;;;;1.07;0.97;;;14.50;97.30;;;;;;5012877;28;20432;-90
2022/09/09 00:42:17;;;;;;;1.10;1.00;;;14.50;97.30;;;;;;5002140;28;20417;-89
2022/09/09 00:44:51;;;;;;;1.30;1.30;;;14.50;97.30;;;;;;4994383;28;20423;-90
2022/09/09 00:47:42;;;;;;;1.23;1.23;;;14.50;97.30;;;;;;4979821;28;20437;-89
2022/09/09 00:50:21;;;;;;;1.30;1.20;;;14.50;97.30;;;;;;4999457;28;20510;-90
2022/09/09 00:52:57;;;;;;;3.10;2.27;;;14.50;97.30;;;;;;4978562;28;20519;-90
2022/09/09 00:55:40;;;;;;;4.10;1.40;;;14.60;97.30;;;;;;4993487;28;20460;-89
2022/09/09 00:58:08;;;;;;;2.70;1.93;;;14.60;97.30;;;;;;4992317;28;20483;-90
2022/09/09 01:00:57;;;;;;;3.80;1.30;;;14.60;97.30;;;;;;5012262;28;20462;-90
2022/09/09 01:03:48;;;;;;;2.27;1.63;;;14.60;97.30;;;;;;4987522;28;20428;-90
2022/09/09 01:06:22;;;;;;;2.73;1.80;;;14.60;97.30;;;;;;5005288;28;20428;-89
2022/09/09 01:09:07;;;;;;;1.97;1.30;;;14.70;97.30;;;;;;4985325;28;20420;-90
2022/09/09 01:12:10;;;;;;;1.40;1.40;;;14.70;97.30;;;;;;5003769;28;20417;-90
2022/09/09 01:14:39;;;;;;;1.63;1.57;;;14.70;97.30;;;;;;4984001;28;20540;-88
2022/09/09 01:17:17;;;;;;;2.03;1.33;;;14.60;97.30;;;;;;5007495;28;20428;-90
2022/09/09 01:19:42;;;;;;;1.70;1.60;;;14.60;97.30;;;;;;4992201;28;20439;-89
2022/09/09 01:22:34;;;;;;;1.27;1.17;;;14.60;97.30;;;;;;4995410;28;20570;-89
2022/09/09 01:25:19;;;;;;;2.33;1.60;;;14.60;97.30;;;;;;4979141;28;20277;-90
2022/09/09 01:27:48;;;;;;;1.97;1.27;;;14.60;97.30;;;;;;4972904;28;20948;-90
2022/09/09 01:30:16;;;;;;;2.00;1.83;;;14.60;97.30;;;;;;4959992;28;20454;-90
2022/09/09 01:32:48;;;;;;;1.30;1.30;;;14.60;97.30;;;;;;4980014;28;20903;-90
2022/09/09 01:35:34;;;;;;;1.20;1.10;;;14.60;97.30;;;;;;4978211;28;20469;-90
2022/09/09 01:38:00;;;;;;;1.10;1.10;;;14.50;97.30;;;;;;4978980;28;20413;-90
2022/09/09 01:40:26;;;;;;;1.87;1.77;;;14.50;97.30;;;;;;4974421;28;20456;-91
2022/09/09 01:42:54;;;;;;;2.07;1.47;;;14.50;97.30;;;;;;4970808;28;20210;-89
2022/09/09 01:45:21;;;;;;;3.00;1.30;;;14.50;97.30;;;;;;4966339;28;21132;-90
2022/09/09 01:47:47;;;;;;;1.30;1.30;;;14.50;97.30;;;;;;4978473;28;20771;-90
2022/09/09 01:50:15;;;;;;;0.90;0.90;;;14.40;97.30;;;;;;4978142;28;20815;-90
2022/09/09 01:52:43;;;;;;;2.27;1.67;;;14.40;97.30;;;;;;4980845;28;20441;-89
2022/09/09 01:55:10;;;;;;;1.30;1.20;;;14.40;97.30;;;;;;4961027;28;20471;-90
2022/09/09 01:58:13;;;;;;;1.20;1.10;;;14.30;97.30;;;;;;4978702;28;20849;-90
2022/09/09 02:00:47;;;;;;;1.30;1.27;;;14.30;97.30;;;;;;4974123;28;20432;-89
2022/09/09 02:03:31;;;;;;;1.40;1.00;;;14.20;97.30;;;;;;4974647;28;20433;-89
2022/09/09 02:06:16;;;;;;;2.00;1.23;;;14.20;97.30;;;;;;4971644;28;20436;-90
2022/09/09 02:08:56;;;;;;;2.70;1.57;;;14.20;97.30;;;;;;4974923;28;20915;-89
2022/09/09 02:11:24;;;;;;;1.97;1.87;;;14.20;97.30;;;;;;4961179;28;20449;-90
2022/09/09 02:13:56;;;;;;;1.13;1.07;;;14.10;97.30;;;;;;4968906;28;20433;-89
2022/09/09 02:16:48;;;;;;;1.10;1.00;;;14.10;97.30;;;;;;4978403;28;20851;-89
2022/09/09 02:19:25;;;;;;;1.27;1.17;;;14.10;97.30;;;;;;4994577;28;20436;-89
2022/09/09 02:21:53;;;;;;;1.70;1.47;;;14.10;97.30;;;;;;5000104;23;20518;-85
2022/09/09 02:24:25;;;;;;;2.10;1.97;;;14.10;97.30;;;;;;5013530;28;20425;-87
2022/09/09 02:26:55;;;;;;;1.40;1.20;;;14.00;97.30;;;;;;5016365;28;20446;-89
2022/09/09 02:29:44;;;;;;;1.87;1.77;;;14.00;97.30;;;;;;5016242;28;20510;-89
2022/09/09 02:32:23;;;;;;;2.07;1.93;;;14.00;97.30;;;;;;5013647;28;20455;-88
2022/09/09 02:34:59;;;;;;;1.20;1.20;;;14.00;97.30;;;;;;5000962;28;20464;-88
2022/09/09 02:37:28;;;;;;;1.40;1.10;;;13.90;97.30;;;;;;5014808;28;20486;-87
2022/09/09 02:39:55;;;;;;;1.00;1.00;;;13.90;97.30;;;;;;5006995;28;20424;-86
2022/09/09 02:42:28;;;;;;;1.50;1.33;;;14.00;97.30;;;;;;5012902;28;20444;-87
2022/09/09 02:44:56;;;;;;;1.30;1.20;;;14.00;97.30;;;;;;4996933;28;21000;-89
2022/09/09 02:47:36;;;;;;;2.10;1.70;;;14.00;97.30;;;;;;5013603;28;20489;-89
2022/09/09 02:50:20;;;;;;;1.20;1.10;;;14.00;97.30;;;;;;5014031;28;20474;-89
2022/09/09 02:53:00;;;;;;;4.40;1.50;;;14.00;97.30;;;;;;4985198;28;20452;-87
2022/09/09 02:55:48;;;;;;;7.80;1.87;;;14.00;97.30;;;;;;5008463;28;20906;-89
2022/09/09 02:58:19;;;;;;;1.10;1.00;;;14.00;97.30;;;;;;4983258;28;20885;-86
2022/09/09 03:00:50;;;;;;;2.43;1.80;;;14.00;97.30;;;;;;4996372;28;20931;-86
2022/09/09 03:03:17;;;;;;;5.40;1.80;;;14.00;97.30;;;;;;4996159;28;20555;-88
2022/09/09 03:05:45;;;;;;;1.77;1.13;;;14.00;97.30;;;;;;4996244;28;20424;-86
2022/09/09 03:08:14;;;;;;;1.10;1.00;;;14.00;97.30;;;;;;5012405;28;20455;-89
2022/09/09 03:10:40;;;;;;;1.70;1.60;;;14.00;97.30;;;;;;5012671;28;20456;-87
2022/09/09 03:13:06;;;;;;;1.90;1.63;;;14.00;97.30;;;;;;5012366;28;20805;-86
2022/09/09 03:15:32;;;;;;;1.20;1.10;;;14.00;97.30;;;;;;4996032;28;20248;-86
2022/09/09 03:17:59;;;;;;;1.30;1.30;;;14.00;97.30;;;;;;5012037;28;20427;-87
2022/09/09 03:20:26;;;;;;;1.80;1.53;;;14.00;97.30;;;;;;5024913;28;20434;-86
2022/09/09 03:22:53;;;;;;;3.37;1.83;;;14.00;97.30;;;;;;4996999;28;20525;-86
2022/09/09 03:25:19;;;;;;;7.60;2.80;;;14.00;97.30;;;;;;5012569;28;20971;-89
2022/09/09 03:27:45;;;;;;;2.13;1.90;;;14.00;97.30;;;;;;5012043;28;20462;-86
2022/09/09 03:30:11;;;;;;;1.40;1.30;;;14.00;97.30;;;;;;5011526;28;20961;-89
2022/09/09 03:32:37;;;;;;;1.77;1.63;;;14.00;97.30;;;;;;5009626;28;20447;-90
2022/09/09 03:35:03;;;;;;;1.53;1.27;;;14.00;97.30;;;;;;5009977;28;20696;-89
2022/09/09 03:37:29;;;;;;;1.00;1.00;;;14.00;97.30;;;;;;5010273;28;20426;-88
2022/09/09 03:39:55;;;;;;;1.50;1.40;;;14.00;97.30;;;;;;5010784;28;20506;-88
2022/09/09 03:42:20;;;;;;;3.20;1.53;;;14.00;97.30;;;;;;5010209;28;20201;-88
2022/09/09 03:44:51;;;;;;;1.83;1.47;;;14.00;97.30;;;;;;5011041;28;20228;-88
2022/09/09 03:47:21;;;;;;;2.60;2.40;;;14.00;97.30;;;;;;5012107;28;20208;-88
2022/09/09 03:49:54;;;;;;;1.50;1.40;;;14.00;97.30;;;;;;5011251;28;20463;-88
2022/09/09 03:52:28;;;;;;;1.50;1.33;;;14.00;97.30;;;;;;4993417;28;20471;-89
2022/09/09 03:54:55;;;;;;;2.20;2.07;;;14.00;97.30;;;;;;5010168;28;20459;-89
2022/09/09 03:57:29;;;;;;;1.00;0.90;;;14.00;97.30;;;;;;5012118;28;20590;-87
2022/09/09 03:59:55;;;;;;;1.50;1.40;;;14.00;97.30;;;;;;5010541;28;20435;-89
2022/09/09 04:02:21;;;;;;;1.37;1.13;;;14.00;97.30;;;;;;4995387;28;20471;-88
2022/09/09 04:04:46;;;;;;;1.20;1.10;;;14.00;97.30;;;;;;5011971;28;20722;-88
2022/09/09 04:07:13;;;;;;;1.87;1.63;;;13.90;97.30;;;;;;4994186;28;20228;-87
2022/09/09 04:09:38;;;;;;;1.07;0.97;;;13.90;97.30;;;;;;5010146;28;20185;-87
2022/09/09 04:12:04;;;;;;;1.50;1.40;;;13.90;97.30;;;;;;5010923;28;20431;-88
2022/09/09 04:14:29;;;;;;;2.40;1.30;;;13.90;97.30;;;;;;5010613;28;20239;-88
2022/09/09 04:16:57;;;;;;;0.90;0.90;;;13.90;97.30;;;;;;4991800;28;20415;-89
2022/09/09 04:19:24;;;;;;;2.27;2.07;;;13.90;97.30;;;;;;5005122;28;20228;-89
2022/09/09 04:21:51;;;;;;;1.33;1.30;;;13.80;97.30;;;;;;4994066;28;20452;-88
2022/09/09 04:24:17;;;;;;;2.07;1.93;;;13.80;97.30;;;;;;5010625;28;20772;-89
2022/09/09 04:26:43;;;;;;;1.20;1.10;;;13.80;97.30;;;;;;5011378;28;20481;-88
2022/09/09 04:29:08;;;;;;;1.33;1.30;;;13.80;97.30;;;;;;4994249;28;20189;-89
2022/09/09 04:31:34;;;;;;;1.30;1.30;;;13.80;97.30;;;;;;5010339;28;20684;-88
2022/09/09 04:34:05;;;;;;;1.43;1.33;;;13.90;97.30;;;;;;5009803;28;20324;-88
2022/09/09 04:36:40;;;;;;;3.53;2.50;;;13.90;97.30;;;;;;5010975;28;21040;-88
2022/09/09 04:39:05;;;;;;;1.47;1.43;;;13.90;97.30;;;;;;4998806;28;20509;-87
2022/09/09 04:41:31;;;;;;;1.00;0.90;;;13.90;97.30;;;;;;4998788;28;20566;-89
2022/09/09 04:43:57;;;;;;;1.47;1.37;;;13.90;97.30;;;;;;5015796;28;20180;-90
2022/09/09 04:49:26;;;;;;;1.47;1.40;;;14.00;97.30;;;;;;5000853;28;20189;-89
2022/09/09 04:51:54;;;;;;;1.20;1.10;;;14.00;97.30;;;;;;4993715;28;20443;-89
2022/09/09 04:54:28;;;;;;;1.33;1.23;;;14.00;97.30;;;;;;5010549;28;20208;-90
2022/09/09 04:56:56;;;;;;;2.37;2.17;;;14.00;97.30;;;;;;5018286;28;20416;-88
2022/09/09 04:59:24;;;;;;;1.17;1.07;;;14.00;97.30;;;;;;5010331;28;20424;-89
2022/09/09 05:01:52;;;;;;;1.53;1.40;;;14.10;97.30;;;;;;5003130;28;20428;-90
2022/09/09 05:04:19;;;;;;;1.40;1.30;;;14.10;97.30;;;;;;5005756;28;20499;-89
2022/09/09 05:06:45;;;;;;;1.53;1.43;;;14.10;97.30;;;;;;5009166;28;20424;-89
2022/09/09 05:09:11;;;;;;;2.40;1.37;;;14.10;97.30;;;;;;5007790;28;20455;-89
2022/09/09 05:11:36;;;;;;;1.00;0.90;;;14.10;97.30;;;;;;5024445;28;20489;-89
2022/09/09 05:14:02;;;;;;;3.90;1.00;;;14.10;97.30;;;;;;5005453;28;20671;-88
2022/09/09 05:16:28;;;;;;;1.27;1.10;;;14.10;97.30;;;;;;5012375;28;20177;-89
2022/09/09 05:18:53;;;;;;;3.60;1.47;;;14.20;97.30;;;;;;5012252;28;20439;-89
2022/09/09 05:21:22;;;;;;;1.23;0.93;;;14.20;97.30;;;;;;5012612;28;20219;-88
2022/09/09 05:23:48;;;;;;;1.27;1.17;;;14.20;97.30;;;;;;5013314;28;20181;-89
2022/09/09 05:26:16;;;;;;;1.20;1.10;;;14.20;97.30;;;;;;5012956;28;20903;-89
2022/09/09 05:28:42;;;;;;;1.40;1.30;;;14.30;97.30;;;;;;5006135;28;20397;-89
2022/09/09 05:31:11;;;;;;;2.40;2.20;;;14.30;97.30;;;;;;5014923;28;20545;-88
2022/09/09 05:33:40;;;;;;;1.03;0.93;;;14.30;97.30;;;;;;5030938;28;20177;-89
2022/09/09 05:36:08;;;;;;;1.70;1.63;;;14.40;97.30;;;;;;5008461;28;20463;-88
2022/09/09 05:38:35;;;;;;;1.83;1.73;;;14.40;97.30;;;;;;5012204;28;20431;-88
2022/09/09 05:41:02;;;;;;;1.03;0.93;;;14.50;97.30;;;;;;5000439;28;20428;-88
2022/09/09 05:43:29;;;;;;;1.33;1.23;;;14.50;97.30;;;;;;5014928;28;20416;-88
2022/09/09 05:46:04;;;;;;;1.83;1.33;;;14.50;97.30;;;;;;5013881;28;20427;-87
2022/09/09 05:48:30;;;;;;;1.23;1.13;;;14.60;97.30;;;;;;5031156;28;20914;-88
2022/09/09 05:50:56;;;;;;;1.17;1.13;;;14.60;97.30;;;;;;4995818;28;20441;-89
2022/09/09 05:53:21;;;;;;;4.03;1.40;;;14.60;97.30;;;;;;5012352;28;20434;-90
2022/09/09 05:55:48;;;;;;;0.97;0.93;;;14.60;97.30;;;;;;5012476;28;20216;-88
2022/09/09 05:58:14;;;;;;;2.87;0.97;;;14.70;97.30;;;;;;5012739;28;20401;-90
2022/09/09 06:00:39;;;;;;;1.20;1.10;;;14.70;97.30;;;;;;5022024;28;20422;-88
2022/09/09 06:03:05;;;;;;;10.23;1.87;;;14.80;97.30;;;;;;5013456;28;20420;-89
2022/09/09 06:05:30;;;;;;;1.13;1.03;;;14.80;97.30;;;;;;5005025;28;20268;-88
2022/09/09 06:07:56;;;;;;;1.53;1.43;;;14.90;97.30;;;;;;4995199;28;20204;-88
2022/09/09 06:10:22;;;;;;;3.07;1.07;;;14.90;97.30;;;;;;5011492;28;20197;-88
2022/09/09 06:12:48;;;;;;;1.10;0.90;;;14.90;97.30;;;;;;5013855;28;20209;-88
2022/09/09 06:15:13;;;;;;;1.10;1.00;;;15.00;97.30;;;;;;5004954;28;20912;-87
2022/09/09 06:17:39;;;;;;;1.30;1.20;;;15.00;97.30;;;;;;5013855;28;20197;-88
2022/09/09 06:20:05;;;;;;;1.30;1.20;;;15.00;97.30;;;;;;5005249;28;20205;-88
2022/09/09 06:22:31;;;;;;;12.23;1.33;;;15.10;97.30;;;;;;5009016;28;20228;-88
2022/09/09 06:24:56;;;;;;;1.10;1.00;;;15.10;97.30;;;;;;5030279;28;20964;-88
2022/09/09 06:27:22;;;;;;;1.37;1.27;;;15.20;97.30;;;;;;5013704;28;20172;-89
2022/09/09 06:29:48;;;;;;;1.73;1.47;;;15.20;97.30;;;;;;5013941;28;20574;-88
2022/09/09 06:32:13;;;;;;;1.30;1.20;;;15.30;97.30;;;;;;5014963;28;20701;-88
2022/09/09 06:34:39;;;;;;;2.20;1.00;;;15.30;97.30;;;;;;5010535;28;20220;-89
2022/09/09 06:37:06;;;;;;;1.17;1.13;;;15.40;97.30;;;;;;4994186;28;20177;-88
2022/09/09 06:39:31;;;;;;;4.03;1.30;;;15.40;97.30;;;;;;5010751;28;20510;-89
2022/09/09 06:41:58;;;;;;;1.30;1.20;;;15.40;97.30;;;;;;5025259;28;20518;-85
2022/09/09 06:44:26;;;;;;;1.00;1.00;;;15.50;97.30;;;;;;5010141;28;20183;-88
2022/09/09 06:46:52;;;;;;;1.20;1.10;;;15.50;97.30;;;;;;5012367;28;20432;-88
2022/09/09 06:49:17;;;;;;;1.53;1.43;;;15.50;97.30;;;;;;5004950;28;20417;-88
2022/09/09 06:51:43;;;;;;;1.00;1.00;;;15.60;97.30;;;;;;5024455;28;20212;-88
2022/09/09 06:54:09;;;;;;;1.23;1.13;;;15.60;97.30;;;;;;5018722;28;20168;-89
2022/09/09 06:56:36;;;;;;;1.10;1.00;;;15.60;97.30;;;;;;5010667;28;20415;-88
2022/09/09 06:59:05;;;;;;;1.87;1.30;;;15.70;97.30;;;;;;5011412;28;20481;-88
2022/09/09 07:01:36;;;;;;;1.00;0.90;;;15.70;97.30;;;;;;5014949;28;20998;-88
2022/09/09 07:04:04;;;;;;;1.20;1.10;;;15.70;97.30;;;;;;5030653;28;20430;-88
2022/09/09 07:06:32;;;;;;;1.00;0.90;;;15.80;97.30;;;;;;5012214;28;20561;-88
2022/09/09 07:09:00;;;;;;;1.40;1.30;;;15.80;97.30;;;;;;5002674;28;20443;-90
2022/09/09 07:11:28;;;;;;;1.30;1.20;;;15.90;97.30;;;;;;5009775;28;20893;-88
2022/09/09 07:13:55;;;;;;;1.30;1.20;;;15.90;97.30;;;;;;5009890;28;20424;-89
2022/09/09 07:16:25;;;;;;;4.23;1.10;;;16.00;97.30;;;;;;5022578;28;20420;-87
2022/09/09 07:18:52;;;;;;;1.27;1.20;;;16.10;97.30;;;;;;5017531;28;20420;-88
2022/09/09 07:21:18;;;;;;;1.27;1.23;;;16.10;97.30;;;;;;5011629;28;20456;-88
2022/09/09 07:23:44;;;;;;;1.17;1.00;;;16.20;97.30;;;;;;5002256;28;20424;-88
2022/09/09 07:26:13;;;;;;;2.40;1.10;;;16.20;97.30;;;;;;4993311;28;20830;-88
2022/09/09 07:28:38;;;;;;;1.30;1.20;;;16.30;97.30;;;;;;5010068;28;20181;-88
2022/09/09 07:31:05;;;;;;;1.00;1.00;;;16.40;97.30;;;;;;5009630;28;20534;-90
2022/09/09 07:33:33;;;;;;;1.20;1.10;;;16.50;97.30;;;;;;5011208;28;20188;-88
2022/09/09 07:36:07;;;;;;;1.10;1.00;;;16.60;97.30;;;;;;5017208;28;20499;-90
2022/09/09 07:38:37;;;;;;;1.10;1.07;;;16.70;97.30;;;;;;5030572;28;20782;-88
2022/09/09 07:41:11;;;;;;;1.10;1.00;;;16.80;97.30;;;;;;5003071;28;20625;-89
2022/09/09 07:43:40;;;;;;;3.40;1.20;;;16.90;97.30;;;;;;5004523;28;20574;-88
2022/09/09 07:46:07;;;;;;;1.40;1.30;;;17.00;97.30;;;;;;5018188;28;20566;-89
2022/09/09 07:48:33;;;;;;;1.80;1.00;;;17.10;97.30;;;;;;4995762;28;20483;-89
2022/09/09 07:51:12;;;;;;;2.70;1.20;;;17.20;97.30;;;;;;4999219;28;20440;-88
2022/09/09 07:53:40;;;;;;;1.40;1.30;;;17.30;97.30;;;;;;4992906;28;20429;-88
2022/09/09 07:56:09;;;;;;;2.73;1.77;;;17.50;97.30;;;;;;5003594;28;20524;-90
2022/09/09 07:58:38;;;;;;;1.10;1.00;;;17.60;97.30;;;;;;4999540;28;20416;-89
2022/09/09 08:01:08;;;;;;;2.17;1.30;;;17.60;97.30;;;;;;5000024;28;20472;-87
2022/09/09 08:03:34;;;;;;;16.50;2.30;;;17.70;97.30;;;;;;5005991;28;20416;-89
2022/09/09 08:06:02;;;;;;;1.57;1.47;;;17.80;97.30;;;;;;5009783;28;20500;-88
2022/09/09 08:08:28;;;;;;;1.00;0.93;;;17.90;97.30;;;;;;4983673;28;20181;-88
2022/09/09 08:11:00;;;;;;;1.00;1.00;;;18.00;97.30;;;;;;4992640;28;20450;-88
2022/09/09 08:13:27;;;;;;;2.40;2.20;;;18.20;97.30;;;;;;5010761;28;20424;-89
2022/09/09 08:15:52;;;;;;;1.07;0.97;;;18.30;97.30;;;;;;5009307;28;21002;-88
2022/09/09 08:18:18;;;;;;;1.33;1.23;;;18.40;97.30;;;;;;5017204;28;20407;-89
2022/09/09 08:20:43;;;;;;;1.40;0.97;;;18.60;97.30;;;;;;5010559;28;20176;-87
2022/09/09 08:23:09;;;;;;;1.80;1.70;;;18.70;97.30;;;;;;5011434;28;20212;-88
2022/09/09 08:25:34;;;;;;;2.67;1.20;;;18.90;97.30;;;;;;5027751;28;20187;-88
2022/09/09 08:27:59;;;;;;;1.00;0.90;;;19.00;97.30;;;;;;5029545;23;20258;-88
2022/09/09 08:30:26;;;;;;;1.20;1.10;;;19.10;97.30;;;;;;5011365;28;20186;-88
2022/09/09 08:32:52;;;;;;;1.10;1.00;;;19.10;97.30;;;;;;5009086;28;20181;-87
2022/09/09 08:35:17;;;;;;;1.27;0.90;;;19.10;97.30;;;;;;4992298;28;20458;-88
2022/09/09 08:37:45;;;;;;;1.27;1.10;;;19.10;97.30;;;;;;5008742;28;20294;-88
2022/09/09 08:40:21;;;;;;;1.70;1.30;;;19.10;97.30;;;;;;4986628;28;20181;-87
2022/09/09 08:42:52;;;;;;;0.80;0.80;;;19.00;97.30;;;;;;4960949;28;20426;-89
2022/09/09 08:45:30;;;;;;;1.10;1.00;;;19.10;97.30;;;;;;4995014;28;20535;-88
2022/09/09 08:48:17;;;;;;;8.30;1.40;;;19.10;97.30;;;;;;4997347;28;20449;-88
2022/09/09 08:50:43;;;;;;;1.17;1.07;;;19.20;97.30;;;;;;4963364;28;20424;-88
2022/09/09 08:53:19;;;;;;;1.37;1.27;;;19.40;97.30;;;;;;4973028;28;20786;-87
2022/09/09 08:55:51;;;;;;;2.10;1.23;;;19.50;97.30;;;;;;4973137;28;21026;-88
2022/09/09 08:58:20;;;;;;;1.83;1.57;;;19.70;97.30;;;;;;4972372;28;20963;-87
2022/09/09 09:01:22;;;;;;;3.83;2.40;;;19.80;97.30;;;;;;4973060;28;20421;-87
2022/09/09 09:04:07;;;;;;;7.50;1.00;;;19.90;97.30;;;;;;4990493;28;20404;-88
2022/09/09 09:06:54;;;;;;;1.50;1.23;;;20.00;97.30;;;;;;5002828;28;20407;-88
2022/09/09 09:09:53;;;;;;;1.00;0.90;;;20.10;97.30;;;;;;4983522;28;20866;-88
2022/09/09 09:12:22;;;;;;;0.90;0.83;;;20.20;97.30;;;;;;4976604;28;20429;-88
2022/09/09 09:14:48;;;;;;;0.80;0.80;;;20.30;97.30;;;;;;4985859;28;20459;-88
2022/09/09 09:17:19;;;;;;;1.10;1.00;;;20.40;97.30;;;;;;4973262;28;20414;-88
2022/09/09 09:19:49;;;;;;;6.73;2.60;;;20.50;97.30;;;;;;5002934;28;20404;-88
2022/09/09 09:22:20;;;;;;;1.03;1.00;;;20.60;97.30;;;;;;4974788;28;20946;-87
2022/09/09 09:24:56;;;;;;;1.00;0.90;;;20.70;97.30;;;;;;4976383;28;20428;-87
2022/09/09 09:27:33;;;;;;;1.00;0.90;;;20.70;97.30;;;;;;4976449;28;20449;-88
2022/09/09 09:30:15;;;;;;;1.00;0.90;;;20.80;97.30;;;;;;4975950;28;20483;-88
2022/09/09 09:32:50;;;;;;;1.77;1.67;;;20.80;97.20;;;;;;4977623;28;20544;-87
2022/09/09 09:35:16;;;;;;;2.00;1.10;;;20.90;97.30;;;;;;4991698;28;20551;-87
2022/09/09 09:37:43;;;;;;;0.80;0.80;;;21.00;97.30;;;;;;4989697;28;20558;-87
2022/09/09 09:40:10;;;;;;;0.83;0.83;;;21.10;96.70;;;;;;4995481;28;20181;-88
2022/09/09 09:42:36;;;;;;;0.90;0.90;;;21.20;97.30;;;;;;4993605;28;20436;-87
2022/09/09 09:45:31;;;;;;;0.90;0.80;;;21.30;97.30;;;;;;4993525;28;20424;-88
2022/09/09 09:48:06;;;;;;;0.90;0.90;;;21.40;96.50;;;;;;4990591;28;20218;-87
2022/09/09 09:50:33;;;;;;;0.90;0.80;;;21.60;95.50;;;;;;4993278;28;20420;-88
2022/09/09 09:53:17;;;;;;;0.90;0.80;;;21.70;96.40;;;;;;5000159;28;20420;-88
2022/09/09 09:55:54;;;;;;;1.33;1.23;;;21.70;95.80;;;;;;4979069;28;20504;-86
2022/09/09 09:58:20;;;;;;;1.10;1.00;;;21.90;95.90;;;;;;4975827;28;20448;-89
2022/09/09 10:00:51;;;;;;;1.00;0.90;;;22.00;96.10;;;;;;4975349;28;20914;-87
2022/09/09 10:03:26;;;;;;;1.10;1.00;;;22.10;95.20;;;;;;4986771;28;20182;-88
2022/09/09 10:05:52;;;;;;;2.20;1.20;;;22.20;94.80;;;;;;4994278;28;20478;-88
2022/09/09 10:08:19;;;;;;;3.37;1.23;;;22.20;94.40;;;;;;4982014;28;20455;-87
2022/09/09 10:11:09;;;;;;;0.70;0.63;;;22.40;94.80;;;;;;4976060;28;20515;-87
2022/09/09 10:14:07;;;;;;;0.77;0.73;;;22.40;93.80;;;;;;4974959;28;20421;-86
2022/09/09 10:16:52;;;;;;;1.00;0.90;;;22.60;94.20;;;;;;4975098;28;20518;-87
2022/09/09 10:19:33;;;;;;;2.23;1.10;;;22.70;94.00;;;;;;4975488;28;20487;-89
2022/09/09 10:22:26;;;;;;;1.57;0.90;;;22.80;92.30;;;;;;4975225;28;20520;-87
2022/09/09 10:25:18;;;;;;;1.20;0.93;;;22.80;92.50;;;;;;4975743;28;20492;-87
2022/09/09 10:28:30;;;;;;;1.20;1.10;;;22.70;92.50;;;;;;4974980;28;20470;-87
2022/09/09 10:31:04;;;;;;;1.10;1.00;;;22.70;92.80;;;;;;4968531;28;20421;-87
2022/09/09 10:33:47;;;;;;;0.90;0.80;;;22.70;93.10;;;;;;4990379;28;20453;-86
2022/09/09 10:36:18;;;;;;;0.87;0.87;;;22.80;91.60;;;;;;4974771;28;20551;-87
2022/09/09 10:39:13;;;;;;;0.97;0.87;;;22.80;93.20;;;;;;4975403;28;20492;-87
2022/09/09 10:41:55;;;;;;;1.53;1.00;;;22.90;91.80;;;;;;4979053;28;20417;-88
2022/09/09 10:44:47;;;;;;;1.03;1.00;;;22.90;91.80;;;;;;4974970;28;21164;-87
2022/09/09 10:47:55;;;;;;;0.90;0.90;;;23.00;91.00;;;;;;4990903;28;20425;-87
2022/09/09 10:50:43;;;;;;;0.80;0.80;;;23.00;92.00;;;;;;4967486;28;20508;-88
2022/09/09 10:53:23;;;;;;;8.70;1.17;;;23.00;91.90;;;;;;4964414;28;20425;-87
2022/09/09 10:55:53;;;;;;;0.80;0.80;;;22.90;91.60;;;;;;4974599;28;20464;-87
2022/09/09 10:58:30;;;;;;;1.07;0.97;;;22.70;91.90;;;;;;4974857;28;20810;-88
2022/09/09 11:01:02;;;;;;;1.00;0.90;;;22.70;92.70;;;;;;4986754;28;20508;-86
2022/09/09 11:03:33;;;;;;;1.30;1.00;;;22.80;92.50;;;;;;4974571;28;20464;-87
2022/09/09 11:05:58;;;;;;;0.90;0.80;;;23.00;92.70;;;;;;4962937;28;20792;-89
2022/09/09 11:08:27;;;;;;;1.03;0.93;;;23.10;91.80;;;;;;5004586;28;20444;-87
2022/09/09 11:11:03;;;;;;;1.27;1.00;;;23.20;91.30;;;;;;4974401;28;20181;-87
2022/09/09 11:13:34;;;;;;;1.10;1.00;;;23.30;91.00;;;;;;4987044;28;20427;-87
2022/09/09 11:16:15;;;;;;;1.30;1.20;;;23.30;90.80;;;;;;4973965;28;20528;-87
2022/09/09 11:18:42;;;;;;;0.80;0.80;;;23.20;91.50;;;;;;4968333;28;20855;-87
2022/09/09 11:21:17;;;;;;;3.17;1.63;;;23.10;90.90;;;;;;4974102;28;20537;-86
2022/09/09 11:23:55;;;;;;;1.13;1.10;;;23.10;91.80;;;;;;4974341;28;20428;-87
2022/09/09 11:26:31;;;;;;;1.10;1.00;;;23.20;92.40;;;;;;5004165;28;20458;-87
2022/09/09 11:29:36;;;;;;;0.90;0.83;;;23.40;91.00;;;;;;5001290;28;20981;-86
2022/09/09 11:32:27;;;;;;;1.00;1.00;;;23.50;89.30;;;;;;4984850;28;20979;-88
2022/09/09 11:35:19;;;;;;;0.80;0.80;;;23.40;88.70;;;;;;4991473;28;20879;-87
2022/09/09 11:38:02;;;;;;;0.90;0.90;;;23.30;89.90;;;;;;5008639;28;20436;-87
2022/09/09 11:40:30;;;;;;;1.03;0.93;;;23.30;90.10;;;;;;4982917;28;20424;-86
2022/09/09 11:43:05;;;;;;;0.93;0.83;;;23.30;90.10;;;;;;4974094;28;20497;-87
2022/09/09 11:45:33;;;;;;;0.80;0.80;;;23.50;89.30;;;;;;4973894;28;20417;-88
2022/09/09 11:48:00;;;;;;;1.63;1.03;;;23.70;88.30;;;;;;4986575;28;20928;-86
2022/09/09 11:50:26;;;;;;;1.03;0.93;;;23.90;89.70;;;;;;5003971;28;20574;-86
2022/09/09 11:53:03;;;;;;;1.00;1.00;;;24.10;87.90;;;;;;4996703;28;20510;-86
2022/09/09 11:55:32;;;;;;;1.03;0.97;;;24.20;87.20;;;;;;4979464;28;20212;-87
2022/09/09 11:58:03;;;;;;;0.80;0.77;;;24.30;86.80;;;;;;4981485;28;20452;-88
2022/09/09 12:00:38;;;;;;;3.70;1.07;;;24.30;87.50;;;;;;4974755;28;20511;-87
2022/09/09 12:03:44;;;;;;;1.90;1.33;;;24.40;84.60;;;;;;4970060;28;20428;-87
2022/09/09 12:06:16;;;;;;;0.83;0.77;;;24.30;84.80;;;;;;4990790;28;20915;-87
2022/09/09 12:08:45;;;;;;;2.30;0.90;;;24.30;85.60;;;;;;4968988;28;20944;-87
2022/09/09 12:11:11;;;;;;;1.10;1.00;;;24.40;83.30;;;;;;4991293;28;20574;-87
2022/09/09 12:13:37;;;;;;;0.70;0.70;;;24.50;83.00;;;;;;4969824;28;21023;-85
2022/09/09 12:16:05;;;;;;;9.13;1.50;;;24.50;83.80;;;;;;4969521;28;20209;-87
2022/09/09 12:18:44;;;;;;;0.80;0.80;;;24.60;85.20;;;;;;4973507;28;20243;-88
2022/09/09 12:21:41;;;;;;;0.90;0.80;;;24.70;81.70;;;;;;4971067;28;20427;-87
2022/09/09 12:24:10;;;;;;;0.90;0.80;;;24.80;82.40;;;;;;4966185;28;20644;-87
2022/09/09 12:27:12;;;;;;;2.03;1.47;;;24.80;81.70;;;;;;4974437;28;20432;-86
2022/09/09 12:29:47;;;;;;;0.90;0.80;;;24.90;82.30;;;;;;4970202;28;20473;-89
2022/09/09 12:32:18;;;;;;;1.10;1.00;;;25.00;83.00;;;;;;4972708;28;20425;-88
2022/09/09 12:34:53;;;;;;;5.80;1.10;;;25.10;83.70;;;;;;4969741;28;20457;-87
2022/09/09 12:37:52;;;;;;;1.00;0.90;;;25.20;82.80;;;;;;4991837;28;20419;-89
2022/09/09 12:40:27;;;;;;;0.97;0.87;;;25.20;81.40;;;;;;4971046;28;20511;-87
2022/09/09 12:42:55;;;;;;;1.00;1.00;;;25.20;82.40;;;;;;4964877;28;20473;-87
2022/09/09 12:45:26;;;;;;;0.93;0.83;;;25.30;82.70;;;;;;4966735;28;20459;-87
2022/09/09 12:48:11;;;;;;;1.50;1.10;;;25.40;82.00;;;;;;4991033;28;20514;-87
2022/09/09 12:50:43;;;;;;;1.73;1.63;;;25.50;82.40;;;;;;4984741;28;20435;-86
2022/09/09 12:53:26;;;;;;;0.90;0.80;;;25.60;82.40;;;;;;4988448;28;20440;-86
2022/09/09 12:56:02;;;;;;;1.03;1.00;;;25.70;82.40;;;;;;4966466;28;20471;-86
2022/09/09 12:58:32;;;;;;;0.80;0.80;;;25.80;81.90;;;;;;4975692;28;20445;-83
2022/09/09 13:00:59;;;;;;;1.67;0.83;;;25.80;82.50;;;;;;4977552;28;20421;-87
2022/09/09 13:03:26;;;;;;;0.90;0.80;;;25.90;81.40;;;;;;4979612;28;20482;-87
2022/09/09 13:06:00;;;;;;;0.80;0.80;;;26.00;81.70;;;;;;5000004;28;20424;-87
2022/09/09 13:08:26;;;;;;;0.90;0.80;;;26.10;79.70;;;;;;4976430;28;20448;-86
2022/09/09 13:11:00;;;;;;;1.00;0.90;;;26.10;80.00;;;;;;4977963;28;20447;-87
2022/09/09 13:13:39;;;;;;;0.90;0.80;;;26.10;81.20;;;;;;4977963;28;20520;-86
2022/09/09 13:16:15;;;;;;;1.20;1.10;;;26.20;80.80;;;;;;4977937;28;20811;-86
2022/09/09 13:18:42;;;;;;;14.83;1.30;;;26.20;78.70;;;;;;4981138;28;20431;-88